createdAt,value
2018-09-28T00:00:11.303Z,100530.88
2018-09-28T00:02:40.290Z,100531.75
2018-09-28T00:05:09.285Z,100532.93
2018-09-28T00:07:38.275Z,100532.22
2018-09-28T00:10:18.268Z,100535.83
2018-09-28T00:12:47.266Z,100533.73
2018-09-28T00:15:16.354Z,100530.59
2018-09-28T00:17:45.384Z,100532.48
2018-09-28T00:20:14.382Z,100527.91
2018-09-28T00:22:43.363Z,100527.70
2018-09-28T00:25:12.341Z,100522.54
2018-09-28T00:27:41.309Z,100526.14
2018-09-28T00:30:10.294Z,100518.37
2018-09-28T00:32:39.275Z,100518.13
2018-09-28T00:35:08.269Z,100508.92
2018-09-28T00:37:37.263Z,100507.80
2018-09-28T00:40:06.253Z,100513.59
2018-09-28T00:42:35.279Z,100504.02
2018-09-28T00:45:04.266Z,100500.73
2018-09-28T00:47:33.255Z,100496.99
2018-09-28T00:50:02.255Z,100495.62
2018-09-28T00:52:31.231Z,100489.57
2018-09-28T00:55:00.247Z,100488.64
2018-09-28T00:57:35.858Z,100483.97
2018-09-28T01:00:04.847Z,100488.97
2018-09-28T01:02:33.887Z,100485.47
2018-09-28T01:05:02.893Z,100492.50
2018-09-28T01:07:31.873Z,100486.97
2018-09-28T01:10:00.907Z,100485.83
2018-09-28T01:12:29.905Z,100481.30
2018-09-28T01:14:58.962Z,100478.44
2018-09-28T01:17:27.934Z,100482.93
2018-09-28T01:19:56.921Z,100480.16
2018-09-28T01:22:25.901Z,100477.39
2018-09-28T01:24:54.877Z,100477.23
2018-09-28T01:27:23.858Z,100475.63
2018-09-28T01:29:53.138Z,100474.95
2018-09-28T01:32:22.135Z,100464.84
2018-09-28T01:34:51.158Z,100472.48
2018-09-28T01:37:20.205Z,100468.28
2018-09-28T01:39:49.199Z,100468.16
2018-09-28T01:42:18.277Z,100470.20
2018-09-28T01:44:47.269Z,100469.58
2018-09-28T01:47:16.277Z,100465.93
2018-09-28T01:49:45.374Z,100467.44
2018-09-28T01:52:14.374Z,100464.83
2018-09-28T01:54:43.378Z,100457.44
2018-09-28T01:57:12.369Z,100458.45
2018-09-28T01:59:41.341Z,100450.80
2018-09-28T02:02:10.373Z,100452.16
2018-09-28T02:04:39.497Z,100448.00
2018-09-28T02:07:08.522Z,100444.97
2018-09-28T02:09:37.494Z,100443.44
2018-09-28T02:12:06.526Z,100442.89
2018-09-28T02:14:35.494Z,100442.92
2018-09-28T02:17:04.520Z,100440.12
2018-09-28T02:19:33.505Z,100441.63
2018-09-28T02:22:02.655Z,100442.14
2018-09-28T02:24:31.627Z,100443.67
2018-09-28T02:27:00.633Z,100441.65
2018-09-28T02:29:29.583Z,100442.13
2018-09-28T02:31:58.578Z,100441.95
2018-09-28T02:34:27.550Z,100451.61
2018-09-28T02:36:56.537Z,100440.37
2018-09-28T02:39:25.549Z,100444.84
2018-09-28T02:41:54.953Z,100443.70
2018-09-28T02:44:23.927Z,100446.49
2018-09-28T02:46:52.937Z,100447.45
2018-09-28T02:49:21.922Z,100440.45
2018-09-28T02:51:50.930Z,100437.52
2018-09-28T02:54:19.940Z,100440.95
2018-09-28T02:56:48.970Z,100442.16
2018-09-28T02:59:17.932Z,100454.31
2018-09-28T03:01:47.027Z,100445.09
2018-09-28T03:04:16.021Z,100446.72
2018-09-28T03:06:44.998Z,100442.94
2018-09-28T03:09:13.995Z,100437.09
2018-09-28T03:11:43.070Z,100442.50
2018-09-28T03:14:12.089Z,100438.73
2018-09-28T03:16:41.095Z,100434.92
2018-09-28T03:19:10.079Z,100439.21
2018-09-28T03:21:39.072Z,100439.95
2018-09-28T03:24:08.038Z,100431.05
2018-09-28T03:26:37.026Z,100438.19
2018-09-28T03:29:06.012Z,100441.05
2018-09-28T03:31:35.146Z,100441.44
2018-09-28T03:34:04.141Z,100446.55
2018-09-28T03:36:33.111Z,100448.69
2018-09-28T03:39:02.082Z,100446.05
2018-09-28T03:41:31.270Z,100453.87
2018-09-28T03:44:00.233Z,100448.13
2018-09-28T03:46:29.282Z,100458.33
2018-09-28T03:48:58.258Z,100457.03
2018-09-28T03:51:27.337Z,100454.81
2018-09-28T03:53:56.315Z,100451.50
2018-09-28T03:56:25.298Z,100455.20
2018-09-28T03:58:54.248Z,100454.47
2018-09-28T04:01:23.227Z,100445.27
2018-09-28T04:03:52.194Z,100446.30
2018-09-28T04:06:21.165Z,100450.84
2018-09-28T04:08:50.170Z,100450.84
2018-09-28T04:11:19.225Z,100449.09
2018-09-28T04:13:48.193Z,100448.06
2018-09-28T04:16:17.180Z,100445.01
2018-09-28T04:18:46.338Z,100440.84
2018-09-28T04:21:15.322Z,100436.11
2018-09-28T04:23:44.294Z,100437.79
2018-09-28T04:26:13.324Z,100435.00
2018-09-28T04:28:42.286Z,100436.77
2018-09-28T04:31:11.262Z,100442.22
2018-09-28T04:33:40.233Z,100438.33
2018-09-28T04:36:09.225Z,100449.28
2018-09-28T04:38:38.293Z,100448.17
2018-09-28T04:41:07.270Z,100451.42
2018-09-28T04:43:36.279Z,100448.91
2018-09-28T04:46:05.241Z,100460.13
2018-09-28T04:48:34.286Z,100455.77
2018-09-28T04:51:03.242Z,100460.42
2018-09-28T04:53:32.221Z,100471.99
2018-09-28T04:56:01.827Z,100465.23
2018-09-28T04:58:30.789Z,100460.77
2018-09-28T05:00:59.750Z,100465.61
2018-09-28T05:03:28.792Z,100470.99
2018-09-28T05:05:57.756Z,100474.87
2018-09-28T05:08:26.729Z,100471.72
2018-09-28T05:10:55.785Z,100478.12
2018-09-28T05:13:25.063Z,100485.70
2018-09-28T05:15:54.034Z,100488.03
2018-09-28T05:18:23.091Z,100490.27
2018-09-28T05:20:52.270Z,100495.98
2018-09-28T05:23:21.253Z,100493.38
2018-09-28T05:25:50.262Z,100494.34
2018-09-28T05:28:19.237Z,100491.17
2018-09-28T05:30:53.969Z,100488.58
2018-09-28T05:33:17.191Z,100489.67
2018-09-28T05:35:46.178Z,100494.22
2018-09-28T05:38:15.188Z,100489.22
2018-09-28T05:40:44.137Z,100499.87
2018-09-28T05:43:13.164Z,100494.69
2018-09-28T05:45:42.129Z,100497.10
2018-09-28T05:48:11.127Z,100501.20
2018-09-28T05:50:40.137Z,100502.95
2018-09-28T05:53:09.127Z,100506.95
2018-09-28T05:55:38.090Z,100513.52
2018-09-28T05:58:12.337Z,100511.20
2018-09-28T06:00:46.542Z,100525.21
2018-09-28T06:03:18.737Z,100525.30
2018-09-28T06:05:52.946Z,100527.52
2018-09-28T06:08:21.909Z,100528.83
2018-09-28T06:10:50.901Z,100544.79
2018-09-28T06:13:21.111Z,100541.81
2018-09-28T06:15:50.234Z,100542.00
2018-09-28T06:18:19.289Z,100537.20
2018-09-28T06:20:48.477Z,100542.20
2018-09-28T06:23:17.530Z,100549.50
2018-09-28T06:25:46.548Z,100542.47
2018-09-28T06:28:15.549Z,100543.27
2018-09-28T06:30:44.499Z,100550.88
2018-09-28T06:33:13.637Z,100551.78
2018-09-28T06:35:42.706Z,100547.14
2018-09-28T06:38:11.716Z,100551.38
2018-09-28T06:40:40.682Z,100554.15
2018-09-28T06:43:09.806Z,100549.34
2018-09-28T06:45:38.788Z,100556.92
2018-09-28T06:48:07.884Z,100554.42
2018-09-28T06:50:36.876Z,100553.81
2018-09-28T06:53:05.863Z,100551.88
2018-09-28T06:55:34.850Z,100557.84
2018-09-28T06:58:03.866Z,100555.97
2018-09-28T07:00:32.837Z,100560.80
2018-09-28T07:03:01.870Z,100561.05
2018-09-28T07:05:30.862Z,100558.56
2018-09-28T07:07:59.984Z,100555.47
2018-09-28T07:10:28.960Z,100554.45
2018-09-28T07:12:57.961Z,100561.57
2018-09-28T07:15:26.933Z,100560.70
2018-09-28T07:17:56.008Z,100566.36
2018-09-28T07:20:24.970Z,100565.82
2018-09-28T07:22:54.065Z,100569.78
2018-09-28T07:25:23.072Z,100569.84
2018-09-28T07:27:52.053Z,100571.92
2018-09-28T07:30:21.117Z,100571.24
2018-09-28T07:32:50.045Z,100568.31
2018-09-28T07:35:19.165Z,100574.66
2018-09-28T07:37:48.298Z,100578.96
2018-09-28T07:40:17.322Z,100580.77
2018-09-28T07:42:46.340Z,100573.44
2018-09-28T07:45:15.322Z,100568.84
2018-09-28T07:47:44.450Z,100572.16
2018-09-28T07:50:13.437Z,100577.18
2018-09-28T07:52:42.579Z,100582.77
2018-09-28T07:55:11.949Z,100580.39
2018-09-28T07:57:41.621Z,100586.33
2018-09-28T08:00:10.625Z,100585.14
2018-09-28T08:02:39.623Z,100589.29
2018-09-28T08:05:08.670Z,100585.48
2018-09-28T08:07:37.670Z,100583.93
2018-09-28T08:10:06.769Z,100584.38
2018-09-28T08:12:35.753Z,100591.86
2018-09-28T08:15:04.938Z,100593.77
2018-09-28T08:17:34.026Z,100591.69
2018-09-28T08:20:03.039Z,100589.03
2018-09-28T08:22:32.018Z,100592.93
2018-09-28T08:25:01.093Z,100589.55
2018-09-28T08:27:30.038Z,100591.29
2018-09-28T08:29:59.044Z,100583.17
2018-09-28T08:32:28.246Z,100575.42
2018-09-28T08:34:57.303Z,100588.63
2018-09-28T08:37:26.313Z,100585.28
2018-09-28T08:39:55.318Z,100581.24
2018-09-28T08:42:24.430Z,100561.58
2018-09-28T08:44:53.562Z,100581.46
2018-09-28T08:47:22.542Z,100584.33
2018-09-28T08:49:51.567Z,100582.91
2018-09-28T08:52:20.554Z,100578.55
2018-09-28T08:54:49.601Z,100583.59
2018-09-28T08:57:18.538Z,100586.97
2018-09-28T08:59:47.584Z,100589.14
2018-09-28T09:02:16.790Z,100593.37
2018-09-28T09:04:45.629Z,100592.52
2018-09-28T09:07:14.694Z,100589.58
2018-09-28T09:09:43.706Z,100596.50
2018-09-28T09:12:12.807Z,100599.90
2018-09-28T09:14:41.830Z,100597.66
2018-09-28T09:17:10.846Z,100600.89
2018-09-28T09:19:39.861Z,100599.84
2018-09-28T09:22:08.854Z,100596.64
2018-09-28T09:24:37.986Z,100595.20
2018-09-28T09:27:07.019Z,100576.64
2018-09-28T09:29:36.081Z,100591.52
2018-09-28T09:32:05.093Z,100591.56
2018-09-28T09:34:34.215Z,100594.62
2018-09-28T09:37:03.223Z,100582.06
2018-09-28T09:39:32.222Z,100577.02
2018-09-28T09:42:01.234Z,100583.36
2018-09-28T09:44:30.378Z,100572.91
2018-09-28T09:46:59.452Z,100578.69
2018-09-28T09:49:28.492Z,100575.89
2018-09-28T09:51:57.468Z,100577.47
2018-09-28T09:54:26.602Z,100571.64
2018-09-28T09:56:55.670Z,100572.86
2018-09-28T09:59:24.731Z,100570.92
2018-09-28T10:01:59.042Z,100574.16
2018-09-28T10:04:28.095Z,100572.82
2018-09-28T10:06:57.119Z,100567.29
2018-09-28T10:09:26.219Z,100562.33
2018-09-28T10:11:55.277Z,100556.92
2018-09-28T10:14:24.281Z,100557.58
2018-09-28T10:16:53.333Z,100563.61
2018-09-28T10:19:22.419Z,100559.71
2018-09-28T10:21:51.418Z,100561.32
2018-09-28T10:24:20.554Z,100557.24
2018-09-28T10:26:49.580Z,100551.66
2018-09-28T10:29:18.642Z,100553.86
2018-09-28T10:31:47.693Z,100551.61
2018-09-28T10:34:16.745Z,100552.45
2018-09-28T10:36:45.701Z,100540.52
2018-09-28T10:39:14.783Z,100542.50
2018-09-28T10:41:43.721Z,100538.97
2018-09-28T10:44:13.010Z,100535.98
2018-09-28T10:46:42.065Z,100539.64
2018-09-28T10:49:11.017Z,100534.41
2018-09-28T10:51:40.284Z,100536.09
2018-09-28T10:54:09.194Z,100534.08
2018-09-28T10:56:38.198Z,100528.81
2018-09-28T10:59:07.221Z,100532.10
2018-09-28T11:01:36.329Z,100525.31
2018-09-28T11:04:05.330Z,100526.81
2018-09-28T11:06:34.454Z,100518.87
2018-09-28T11:09:03.751Z,100521.20
2018-09-28T11:11:33.410Z,100523.48
2018-09-28T11:14:02.645Z,100514.73
2018-09-28T11:16:32.078Z,100514.25
2018-09-28T11:19:01.170Z,100511.57
2018-09-28T11:21:30.302Z,100515.50
2018-09-28T11:23:59.297Z,100509.74
2018-09-28T11:26:28.502Z,100507.75
2018-09-28T11:28:57.579Z,100504.94
2018-09-28T11:31:26.577Z,100504.06
2018-09-28T11:33:55.658Z,100502.86
2018-09-28T11:36:24.677Z,100493.75
2018-09-28T11:38:53.658Z,100494.86
2018-09-28T11:41:22.738Z,100498.34
2018-09-28T11:43:51.737Z,100495.23
2018-09-28T11:46:20.754Z,100495.13
2018-09-28T11:48:49.741Z,100491.55
2018-09-28T11:51:18.745Z,100498.98
2018-09-28T11:53:47.741Z,100487.49
2018-09-28T11:56:16.745Z,100487.84
2018-09-28T11:58:45.817Z,100485.61
2018-09-28T12:01:14.825Z,100486.88
2018-09-28T12:03:43.954Z,100485.30
2018-09-28T12:06:13.000Z,100491.41
2018-09-28T12:08:41.969Z,100479.88
2018-09-28T12:11:10.957Z,100475.67
2018-09-28T12:13:40.019Z,100481.17
2018-09-28T12:16:09.261Z,100466.34
2018-09-28T12:18:38.447Z,100464.08
2018-09-28T12:21:07.415Z,100456.22
2018-09-28T12:23:36.385Z,100459.46
2018-09-28T12:26:05.375Z,100461.02
2018-09-28T12:28:34.380Z,100454.08
2018-09-28T12:31:03.365Z,100454.66
2018-09-28T12:33:32.402Z,100456.23
2018-09-28T12:36:01.380Z,100447.70
2018-09-28T12:38:30.467Z,100448.50
2018-09-28T12:40:59.445Z,100443.11
2018-09-28T12:43:35.029Z,100446.63
2018-09-28T12:45:57.678Z,100436.70
2018-09-28T12:48:26.653Z,100445.35
2018-09-28T12:50:55.606Z,100439.69
2018-09-28T12:53:24.610Z,100439.47
2018-09-28T12:55:53.602Z,100444.88
2018-09-28T12:58:22.613Z,100438.14
2018-09-28T13:00:51.635Z,100438.66
2018-09-28T13:03:20.578Z,100433.63
2018-09-28T13:05:49.568Z,100442.92
2018-09-28T13:08:18.581Z,100441.38
2018-09-28T13:10:48.104Z,100439.90
2018-09-28T13:13:17.835Z,100430.25
2018-09-28T13:15:47.085Z,100435.06
2018-09-28T13:18:16.188Z,100427.47
2018-09-28T13:20:45.199Z,100437.86
2018-09-28T13:23:14.133Z,100439.30
2018-09-28T13:25:43.113Z,100435.86
2018-09-28T13:28:12.118Z,100434.39
2018-09-28T13:30:41.213Z,100436.75
2018-09-28T13:33:10.154Z,100434.89
2018-09-28T13:35:39.306Z,100440.98
2018-09-28T13:38:08.423Z,100440.71
2018-09-28T13:40:37.426Z,100435.31
2018-09-28T13:43:06.498Z,100443.16
2018-09-28T13:45:35.714Z,100436.70
2018-09-28T13:48:04.666Z,100441.65
2018-09-28T13:50:34.175Z,100450.55
2018-09-28T13:53:03.239Z,100448.03
2018-09-28T13:55:32.281Z,100446.80
2018-09-28T13:58:01.298Z,100447.55
2018-09-28T14:00:30.345Z,100449.22
2018-09-28T14:02:59.407Z,100444.72
2018-09-28T14:05:28.482Z,100448.23
2018-09-28T14:07:57.461Z,100456.54
2018-09-28T14:10:26.563Z,100460.21
2018-09-28T14:12:55.570Z,100452.55
2018-09-28T14:15:24.572Z,100458.03
2018-09-28T14:17:53.611Z,100450.56
2018-09-28T14:20:22.662Z,100450.23
2018-09-28T14:22:51.666Z,100451.93
2018-09-28T14:25:20.595Z,100447.24
2018-09-28T14:27:49.681Z,100450.98
2018-09-28T14:30:18.652Z,100448.62
2018-09-28T14:32:47.712Z,100447.08
2018-09-28T14:35:16.650Z,100449.81
2018-09-28T14:37:45.674Z,100459.26
2018-09-28T14:40:14.762Z,100462.07
2018-09-28T14:42:43.852Z,100467.55
2018-09-28T14:45:12.758Z,100469.91
2018-09-28T14:47:41.731Z,100474.22
2018-09-28T14:50:10.983Z,100477.36
2018-09-28T14:52:40.039Z,100470.73
2018-09-28T14:55:09.115Z,100482.80
2018-09-28T14:57:38.219Z,100480.49
2018-09-28T15:00:07.697Z,100483.78
2018-09-28T15:02:36.953Z,100485.16
2018-09-28T15:05:06.210Z,100486.83
2018-09-28T15:07:35.267Z,100489.13
2018-09-28T15:10:04.268Z,100488.82
2018-09-28T15:12:33.363Z,100498.06
2018-09-28T15:15:02.327Z,100505.61
2018-09-28T15:17:31.381Z,100507.57
2018-09-28T15:20:00.430Z,100515.61
2018-09-28T15:22:29.469Z,100514.89
2018-09-28T15:24:58.478Z,100519.97
2018-09-28T15:27:27.480Z,100522.50
2018-09-28T15:29:56.592Z,100531.05
2018-09-28T15:32:25.578Z,100539.05
2018-09-28T15:34:54.590Z,100547.90
2018-09-28T15:37:23.586Z,100556.13
2018-09-28T15:39:52.674Z,100562.76
2018-09-28T15:42:21.665Z,100572.95
2018-09-28T15:44:50.842Z,100577.73
2018-09-28T15:47:19.851Z,100571.81
2018-09-28T15:49:48.922Z,100580.06
2018-09-28T15:52:17.947Z,100574.34
2018-09-28T15:54:46.945Z,100580.22
2018-09-28T15:57:15.935Z,100585.48
2018-09-28T15:59:44.972Z,100588.97
2018-09-28T16:02:13.970Z,100590.44
2018-09-28T16:04:42.993Z,100587.14
2018-09-28T16:07:11.995Z,100602.48
2018-09-28T16:09:41.115Z,100604.00
2018-09-28T16:12:10.160Z,100615.03
2018-09-28T16:14:39.101Z,100625.05
2018-09-28T16:17:08.103Z,100624.83
2018-09-28T16:19:37.271Z,100628.07
2018-09-28T16:22:06.261Z,100641.44
2018-09-28T16:24:35.440Z,100646.36
2018-09-28T16:27:04.404Z,100649.34
2018-09-28T16:29:33.413Z,100658.91
2018-09-28T16:32:02.425Z,100665.77
2018-09-28T16:34:31.397Z,100669.25
2018-09-28T16:37:00.446Z,100672.30
2018-09-28T16:39:29.469Z,100661.36
2018-09-28T16:41:58.461Z,100676.39
2018-09-28T16:44:27.470Z,100678.47
2018-09-28T16:46:56.483Z,100671.58
2018-09-28T16:49:25.481Z,100679.80
2018-09-28T16:51:54.547Z,100693.83
2018-09-28T16:54:23.601Z,100693.83
2018-09-28T16:56:52.628Z,100700.38
2018-09-28T16:59:21.678Z,100706.02
2018-09-28T17:01:50.676Z,100701.10
2018-09-28T17:04:19.654Z,100708.41
2018-09-28T17:06:48.653Z,100713.88
2018-09-28T17:09:17.686Z,100699.23
2018-09-28T17:11:46.631Z,100719.00
2018-09-28T17:14:15.611Z,100718.41
2018-09-28T17:16:44.620Z,100709.87
2018-09-28T17:19:13.703Z,100711.18
2018-09-28T17:21:43.066Z,100701.56
2018-09-28T17:24:12.049Z,100719.06
2018-09-28T17:26:41.041Z,100723.48
2018-09-28T17:29:10.105Z,100721.80
2018-09-28T17:31:39.071Z,100722.05
2018-09-28T17:34:08.293Z,100741.69
2018-09-28T17:36:37.661Z,100748.94
2018-09-28T17:39:09.137Z,100753.69
2018-09-28T17:41:38.266Z,100762.98
2018-09-28T17:44:07.446Z,100766.34
2018-09-28T17:46:36.502Z,100768.34
2018-09-28T17:49:05.656Z,100772.74
2018-09-28T17:51:34.674Z,100773.82
2018-09-28T17:54:03.727Z,100774.41
2018-09-28T17:56:32.785Z,100775.50
2018-09-28T17:59:02.636Z,100773.82
2018-09-28T18:01:31.667Z,100784.89
2018-09-28T18:04:00.658Z,100787.88
2018-09-28T18:06:29.766Z,100786.91
2018-09-28T18:08:58.798Z,100792.28
2018-09-28T18:11:27.794Z,100793.22
2018-09-28T18:13:56.794Z,100797.03
2018-09-28T18:16:25.798Z,100805.38
2018-09-28T18:18:54.825Z,100809.67
2018-09-28T18:21:23.830Z,100809.30
2018-09-28T18:23:52.825Z,100805.74
2018-09-28T18:26:21.804Z,100821.70
2018-09-28T18:28:50.805Z,100825.62
2018-09-28T18:31:19.782Z,100825.12
2018-09-28T18:33:48.838Z,100824.66
2018-09-28T18:36:17.821Z,100824.53
2018-09-28T18:38:46.897Z,100832.05
2018-09-28T18:41:16.012Z,100834.17
2018-09-28T18:43:44.998Z,100835.14
2018-09-28T18:46:14.022Z,100840.98
2018-09-28T18:48:43.022Z,100845.14
2018-09-28T18:51:12.009Z,100844.17
2018-09-28T18:53:41.350Z,100848.70
2018-09-28T18:56:10.347Z,100841.34
2018-09-28T18:58:39.438Z,100854.31
2018-09-28T19:01:08.493Z,100855.36
2018-09-28T19:03:37.478Z,100855.73
2018-09-28T19:06:06.683Z,100855.09
2018-09-28T19:08:35.821Z,100864.53
2018-09-28T19:11:04.793Z,100865.60
2018-09-28T19:13:33.846Z,100858.81
2018-09-28T19:16:02.821Z,100867.85
2018-09-28T19:18:31.834Z,100877.16
2018-09-28T19:21:00.998Z,100877.87
2018-09-28T19:23:29.987Z,100885.00
2018-09-28T19:25:59.077Z,100889.41
2018-09-28T19:28:28.233Z,100891.69
2018-09-28T19:30:57.325Z,100890.38
2018-09-28T19:33:26.429Z,100889.78
2018-09-28T19:35:55.477Z,100888.64
2018-09-28T19:38:24.473Z,100893.94
2018-09-28T19:41:00.512Z,100895.11
2018-09-28T19:43:30.255Z,100904.78
2018-09-28T19:45:59.437Z,100910.42
2018-09-28T19:48:28.439Z,100909.98
2018-09-28T19:50:57.501Z,100912.64
2018-09-28T19:53:26.526Z,100916.62
2018-09-28T19:55:55.517Z,100924.83
2018-09-28T19:58:24.549Z,100920.19
2018-09-28T20:00:53.621Z,100919.66
2018-09-28T20:03:22.605Z,100915.42
2018-09-28T20:05:51.598Z,100920.19
2018-09-28T20:08:20.618Z,100917.80
2018-09-28T20:10:49.667Z,100920.05
2018-09-28T20:13:18.645Z,100938.61
2018-09-28T20:15:47.705Z,100938.52
2018-09-28T20:18:16.723Z,100940.86
2018-09-28T20:20:46.146Z,100949.23
2018-09-28T20:23:15.170Z,100952.91
2018-09-28T20:25:44.210Z,100953.95
2018-09-28T20:28:13.207Z,100962.16
2018-09-28T20:30:43.051Z,100969.28
2018-09-28T20:33:12.060Z,100964.42
2018-09-28T20:35:41.094Z,100965.08
2018-09-28T20:38:10.077Z,100974.70
2018-09-28T20:40:39.113Z,100972.41
2018-09-28T20:43:08.855Z,100970.26
2018-09-28T20:45:37.905Z,100975.65
2018-09-28T20:48:06.902Z,100970.48
2018-09-28T20:50:35.958Z,100969.03
2018-09-28T20:53:05.026Z,100973.05
2018-09-28T20:55:34.109Z,100970.95
2018-09-28T20:58:03.157Z,100966.49
2018-09-28T21:00:32.155Z,100968.27
2018-09-28T21:03:01.529Z,100979.91
2018-09-28T21:05:30.577Z,100983.97
2018-09-28T21:07:59.584Z,100984.33
2018-09-28T21:10:28.603Z,100982.63
2018-09-28T21:12:57.605Z,100983.19
2018-09-28T21:15:26.657Z,100986.75
2018-09-28T21:17:55.645Z,100999.54
2018-09-28T21:20:24.653Z,100989.98
2018-09-28T21:22:53.675Z,100990.61
2018-09-28T21:25:22.665Z,100995.16
2018-09-28T21:27:51.654Z,101003.20
2018-09-28T21:30:20.661Z,100997.38
2018-09-28T21:32:49.669Z,101007.95
2018-09-28T21:35:18.698Z,101012.91
2018-09-28T21:37:47.626Z,101007.89
2018-09-28T21:40:16.785Z,101011.70
2018-09-28T21:42:46.093Z,100998.42
2018-09-28T21:45:15.217Z,101000.27
2018-09-28T21:47:44.203Z,101005.16
2018-09-28T21:50:13.318Z,101002.59
2018-09-28T21:52:42.343Z,101005.11
2018-09-28T21:55:11.434Z,101001.23
2018-09-28T21:57:40.410Z,101007.19
2018-09-28T22:00:09.405Z,101007.05
2018-09-28T22:02:38.390Z,101007.78
2018-09-28T22:05:07.443Z,101014.41
2018-09-28T22:07:36.433Z,101008.05
2018-09-28T22:10:05.509Z,100998.77
2018-09-28T22:12:34.547Z,101001.64
2018-09-28T22:15:03.530Z,101015.47
2018-09-28T22:17:32.526Z,101018.50
2018-09-28T22:20:01.554Z,101026.11
2018-09-28T22:22:30.578Z,101021.13
2018-09-28T22:24:59.561Z,101018.01
2018-09-28T22:27:28.586Z,101031.95
2018-09-28T22:29:57.563Z,101028.55
2018-09-28T22:32:26.553Z,101033.11
2018-09-28T22:34:55.546Z,101032.00
2018-09-28T22:37:24.556Z,101039.06
2018-09-28T22:39:53.538Z,101045.11
2018-09-28T22:42:22.538Z,101051.63
2018-09-28T22:44:51.509Z,101048.95
2018-09-28T22:47:20.599Z,101059.74
2018-09-28T22:49:49.591Z,101058.73
2018-09-28T22:52:18.573Z,101057.48
2018-09-28T22:54:47.554Z,101064.80
2018-09-28T22:57:16.554Z,101061.05
2018-09-28T22:59:45.535Z,101064.23
2018-09-28T23:02:14.517Z,101070.40
2018-09-28T23:04:43.731Z,101067.27
2018-09-28T23:07:12.730Z,101066.52
2018-09-28T23:09:41.712Z,101064.09
2018-09-28T23:12:10.701Z,101064.71
2018-09-28T23:14:39.673Z,101068.56
2018-09-28T23:17:08.725Z,101073.66
2018-09-28T23:19:37.697Z,101079.25
2018-09-28T23:22:06.683Z,101084.39
2018-09-28T23:24:35.657Z,101091.40
2018-09-28T23:27:04.661Z,101095.30
2018-09-28T23:29:33.703Z,101091.22
2018-09-28T23:32:02.781Z,101086.83
2018-09-28T23:34:31.733Z,101091.05
2018-09-28T23:37:00.705Z,101092.59
2018-09-28T23:39:29.731Z,101085.19
2018-09-28T23:41:58.722Z,101083.83
2018-09-28T23:44:27.681Z,101091.02
2018-09-28T23:46:56.662Z,101095.98
2018-09-28T23:49:25.646Z,101091.41
2018-09-28T23:51:54.621Z,101097.27
2018-09-28T23:54:23.867Z,101099.61
2018-09-28T23:56:52.802Z,101104.52
2018-09-28T23:59:21.783Z,101104.89
